sensor_id;sensor_type;location;lat;lon;timestamp;temperature;humidity
324;DHT22;149;51.094;17.002;2022-09-12T00:02:01;13.80;99.90
324;DHT22;149;51.094;17.002;2022-09-12T00:04:30;13.70;99.90
324;DHT22;149;51.094;17.002;2022-09-12T00:06:56;13.90;99.90
324;DHT22;149;51.094;17.002;2022-09-12T00:09:24;13.70;99.90
324;DHT22;149;51.094;17.002;2022-09-12T00:11:50;13.70;99.90
324;DHT22;149;51.094;17.002;2022-09-12T00:14:20;13.80;99.90
324;DHT22;149;51.094;17.002;2022-09-12T00:16:50;13.80;99.90
324;DHT22;149;51.094;17.002;2022-09-12T00:19:17;13.90;99.90
324;DHT22;149;51.094;17.002;2022-09-12T00:21:44;13.90;99.90
324;DHT22;149;51.094;17.002;2022-09-12T00:24:11;14.00;99.90
324;DHT22;149;51.094;17.002;2022-09-12T00:26:39;14.00;99.90
324;DHT22;149;51.094;17.002;2022-09-12T00:29:06;14.00;99.90
324;DHT22;149;51.094;17.002;2022-09-12T00:31:33;13.90;99.90
324;DHT22;149;51.094;17.002;2022-09-12T00:34:01;14.00;99.90
324;DHT22;149;51.094;17.002;2022-09-12T00:36:29;14.00;99.90
324;DHT22;149;51.094;17.002;2022-09-12T00:38:57;14.10;99.90
324;DHT22;149;51.094;17.002;2022-09-12T00:41:26;14.20;99.90
324;DHT22;149;51.094;17.002;2022-09-12T00:43:57;14.30;99.90
324;DHT22;149;51.094;17.002;2022-09-12T00:46:30;14.40;99.90
324;DHT22;149;51.094;17.002;2022-09-12T00:49:07;14.30;99.90
324;DHT22;149;51.094;17.002;2022-09-12T00:51:37;14.30;99.90
324;DHT22;149;51.094;17.002;2022-09-12T00:54:09;14.40;99.90
324;DHT22;149;51.094;17.002;2022-09-12T00:56:39;14.30;99.90
324;DHT22;149;51.094;17.002;2022-09-12T00:59:14;14.40;99.90
324;DHT22;149;51.094;17.002;2022-09-12T01:01:43;14.30;99.90
324;DHT22;149;51.094;17.002;2022-09-12T01:04:11;14.30;99.90
324;DHT22;149;51.094;17.002;2022-09-12T01:06:42;14.40;99.90
324;DHT22;149;51.094;17.002;2022-09-12T01:09:15;14.40;99.90
324;DHT22;149;51.094;17.002;2022-09-12T01:11:44;14.30;99.90
324;DHT22;149;51.094;17.002;2022-09-12T01:14:13;14.10;99.90
324;DHT22;149;51.094;17.002;2022-09-12T01:16:42;14.10;99.90
324;DHT22;149;51.094;17.002;2022-09-12T01:19:49;14.00;99.90
324;DHT22;149;51.094;17.002;2022-09-12T01:22:43;14.00;99.90
324;DHT22;149;51.094;17.002;2022-09-12T01:25:41;13.90;99.90
324;DHT22;149;51.094;17.002;2022-09-12T01:31:25;13.90;99.90
324;DHT22;149;51.094;17.002;2022-09-12T01:37:06;13.90;99.90
324;DHT22;149;51.094;17.002;2022-09-12T01:39:49;14.10;99.90
324;DHT22;149;51.094;17.002;2022-09-12T01:42:31;14.00;99.90
324;DHT22;149;51.094;17.002;2022-09-12T01:45:07;14.00;99.90
324;DHT22;149;51.094;17.002;2022-09-12T01:47:39;14.00;99.90
324;DHT22;149;51.094;17.002;2022-09-12T01:52:52;13.90;99.90
324;DHT22;149;51.094;17.002;2022-09-12T01:55:31;14.00;99.90
324;DHT22;149;51.094;17.002;2022-09-12T01:58:10;14.10;99.90
324;DHT22;149;51.094;17.002;2022-09-12T02:00:54;14.10;99.90
324;DHT22;149;51.094;17.002;2022-09-12T02:03:54;14.10;99.90
324;DHT22;149;51.094;17.002;2022-09-12T02:06:39;14.00;99.90
324;DHT22;149;51.094;17.002;2022-09-12T02:09:21;13.90;99.90
324;DHT22;149;51.094;17.002;2022-09-12T02:11:52;14.10;99.90
324;DHT22;149;51.094;17.002;2022-09-12T02:14:23;14.10;99.90
324;DHT22;149;51.094;17.002;2022-09-12T02:16:56;14.10;99.90
324;DHT22;149;51.094;17.002;2022-09-12T02:19:29;14.10;99.90
324;DHT22;149;51.094;17.002;2022-09-12T02:22:01;14.00;99.90
324;DHT22;149;51.094;17.002;2022-09-12T02:24:42;14.00;99.90
324;DHT22;149;51.094;17.002;2022-09-12T02:27:24;14.00;99.90
324;DHT22;149;51.094;17.002;2022-09-12T02:29:52;13.90;99.90
324;DHT22;149;51.094;17.002;2022-09-12T02:32:40;13.90;99.90
324;DHT22;149;51.094;17.002;2022-09-12T02:35:21;13.70;99.90
324;DHT22;149;51.094;17.002;2022-09-12T02:38:08;13.60;99.90
324;DHT22;149;51.094;17.002;2022-09-12T02:40:38;13.50;99.90
324;DHT22;149;51.094;17.002;2022-09-12T02:43:05;13.60;99.90
324;DHT22;149;51.094;17.002;2022-09-12T02:45:34;13.50;99.90
324;DHT22;149;51.094;17.002;2022-09-12T02:48:08;13.50;99.90
324;DHT22;149;51.094;17.002;2022-09-12T02:50:39;13.80;99.90
324;DHT22;149;51.094;17.002;2022-09-12T02:53:07;13.70;99.90
324;DHT22;149;51.094;17.002;2022-09-12T02:55:36;13.80;99.90
324;DHT22;149;51.094;17.002;2022-09-12T02:58:09;13.80;99.90
324;DHT22;149;51.094;17.002;2022-09-12T03:06:25;14.10;99.90
324;DHT22;149;51.094;17.002;2022-09-12T03:12:06;13.90;99.90
324;DHT22;149;51.094;17.002;2022-09-12T03:17:50;13.70;99.90
324;DHT22;149;51.094;17.002;2022-09-12T03:23:24;13.70;99.90
324;DHT22;149;51.094;17.002;2022-09-12T03:25:58;13.70;99.90
324;DHT22;149;51.094;17.002;2022-09-12T03:28:32;13.80;99.90
324;DHT22;149;51.094;17.002;2022-09-12T03:31:11;13.70;99.90
324;DHT22;149;51.094;17.002;2022-09-12T03:33:39;13.70;99.90
324;DHT22;149;51.094;17.002;2022-09-12T03:36:09;13.70;99.90
324;DHT22;149;51.094;17.002;2022-09-12T03:38:40;13.80;99.90
324;DHT22;149;51.094;17.002;2022-09-12T03:41:07;13.90;99.90
324;DHT22;149;51.094;17.002;2022-09-12T03:43:33;13.90;99.90
324;DHT22;149;51.094;17.002;2022-09-12T03:46:01;13.90;99.90
324;DHT22;149;51.094;17.002;2022-09-12T03:48:28;13.90;99.90
324;DHT22;149;51.094;17.002;2022-09-12T03:50:59;13.90;99.90
324;DHT22;149;51.094;17.002;2022-09-12T03:53:26;14.00;99.90
324;DHT22;149;51.094;17.002;2022-09-12T03:55:53;13.90;99.90
324;DHT22;149;51.094;17.002;2022-09-12T03:58:20;14.10;99.90
324;DHT22;149;51.094;17.002;2022-09-12T04:00:47;14.20;99.90
324;DHT22;149;51.094;17.002;2022-09-12T04:03:14;14.30;99.90
324;DHT22;149;51.094;17.002;2022-09-12T04:05:40;14.40;99.90
324;DHT22;149;51.094;17.002;2022-09-12T04:08:08;14.30;99.90
324;DHT22;149;51.094;17.002;2022-09-12T04:10:34;14.30;99.90
324;DHT22;149;51.094;17.002;2022-09-12T04:13:01;14.30;99.90
324;DHT22;149;51.094;17.002;2022-09-12T04:15:28;14.10;99.90
324;DHT22;149;51.094;17.002;2022-09-12T04:17:56;14.00;99.90
324;DHT22;149;51.094;17.002;2022-09-12T04:20:23;14.10;99.90
324;DHT22;149;51.094;17.002;2022-09-12T04:22:50;14.00;99.90
324;DHT22;149;51.094;17.002;2022-09-12T04:25:18;14.00;99.90
324;DHT22;149;51.094;17.002;2022-09-12T04:27:45;14.00;99.90
324;DHT22;149;51.094;17.002;2022-09-12T04:30:14;14.30;99.90
324;DHT22;149;51.094;17.002;2022-09-12T04:32:41;14.20;99.90
324;DHT22;149;51.094;17.002;2022-09-12T04:35:10;14.30;99.90
324;DHT22;149;51.094;17.002;2022-09-12T04:37:38;14.20;99.90
324;DHT22;149;51.094;17.002;2022-09-12T04:40:07;14.20;99.90
324;DHT22;149;51.094;17.002;2022-09-12T04:42:35;14.30;99.90
324;DHT22;149;51.094;17.002;2022-09-12T04:45:02;14.40;99.90
324;DHT22;149;51.094;17.002;2022-09-12T04:47:29;14.50;99.90
324;DHT22;149;51.094;17.002;2022-09-12T04:49:55;14.40;99.90
324;DHT22;149;51.094;17.002;2022-09-12T04:52:22;14.30;99.90
324;DHT22;149;51.094;17.002;2022-09-12T04:54:49;14.30;99.90
324;DHT22;149;51.094;17.002;2022-09-12T04:57:16;14.30;99.90
324;DHT22;149;51.094;17.002;2022-09-12T04:59:43;14.30;99.90
324;DHT22;149;51.094;17.002;2022-09-12T05:02:10;14.30;99.90
324;DHT22;149;51.094;17.002;2022-09-12T05:04:37;14.50;99.90
324;DHT22;149;51.094;17.002;2022-09-12T05:07:04;14.60;99.90
324;DHT22;149;51.094;17.002;2022-09-12T05:09:31;14.60;99.90
324;DHT22;149;51.094;17.002;2022-09-12T05:11:58;14.70;99.90
324;DHT22;149;51.094;17.002;2022-09-12T05:14:30;14.80;99.90
324;DHT22;149;51.094;17.002;2022-09-12T05:17:00;14.80;99.90
324;DHT22;149;51.094;17.002;2022-09-12T05:19:28;14.90;99.90
324;DHT22;149;51.094;17.002;2022-09-12T05:21:56;15.00;99.90
324;DHT22;149;51.094;17.002;2022-09-12T05:24:24;15.00;99.90
324;DHT22;149;51.094;17.002;2022-09-12T05:26:51;15.30;99.90
324;DHT22;149;51.094;17.002;2022-09-12T05:29:17;15.30;99.90
324;DHT22;149;51.094;17.002;2022-09-12T05:31:48;15.50;99.90
324;DHT22;149;51.094;17.002;2022-09-12T05:34:18;15.40;99.90
324;DHT22;149;51.094;17.002;2022-09-12T05:36:45;15.60;99.90
324;DHT22;149;51.094;17.002;2022-09-12T05:39:12;15.70;99.90
324;DHT22;149;51.094;17.002;2022-09-12T05:41:39;15.50;99.90
324;DHT22;149;51.094;17.002;2022-09-12T05:44:10;15.50;99.90
324;DHT22;149;51.094;17.002;2022-09-12T05:46:42;15.50;99.90
324;DHT22;149;51.094;17.002;2022-09-12T05:49:11;15.60;99.90
324;DHT22;149;51.094;17.002;2022-09-12T05:51:40;15.70;99.90
324;DHT22;149;51.094;17.002;2022-09-12T05:54:09;15.80;99.90
324;DHT22;149;51.094;17.002;2022-09-12T05:56:38;16.00;99.90
324;DHT22;149;51.094;17.002;2022-09-12T05:59:12;16.20;99.90
324;DHT22;149;51.094;17.002;2022-09-12T06:01:39;16.40;99.90
324;DHT22;149;51.094;17.002;2022-09-12T06:04:07;16.60;99.90
324;DHT22;149;51.094;17.002;2022-09-12T06:06:37;16.80;99.90
324;DHT22;149;51.094;17.002;2022-09-12T06:09:09;16.80;99.90
324;DHT22;149;51.094;17.002;2022-09-12T06:11:39;17.00;99.90
324;DHT22;149;51.094;17.002;2022-09-12T06:14:08;17.00;99.90
324;DHT22;149;51.094;17.002;2022-09-12T06:16:36;16.90;99.90
324;DHT22;149;51.094;17.002;2022-09-12T06:19:10;16.90;99.90
324;DHT22;149;51.094;17.002;2022-09-12T06:21:38;17.20;99.90
324;DHT22;149;51.094;17.002;2022-09-12T06:24:05;17.20;99.90
324;DHT22;149;51.094;17.002;2022-09-12T06:26:34;17.30;99.90
324;DHT22;149;51.094;17.002;2022-09-12T06:29:06;17.60;99.90
324;DHT22;149;51.094;17.002;2022-09-12T06:31:35;18.20;99.90
324;DHT22;149;51.094;17.002;2022-09-12T06:34:04;18.90;99.90
324;DHT22;149;51.094;17.002;2022-09-12T06:36:42;19.60;99.90
324;DHT22;149;51.094;17.002;2022-09-12T06:39:16;19.90;99.90
324;DHT22;149;51.094;17.002;2022-09-12T06:41:44;19.90;99.90
324;DHT22;149;51.094;17.002;2022-09-12T06:44:20;19.80;99.90
324;DHT22;149;51.094;17.002;2022-09-12T06:46:52;20.50;99.90
324;DHT22;149;51.094;17.002;2022-09-12T06:49:20;21.50;99.90
324;DHT22;149;51.094;17.002;2022-09-12T06:51:49;22.30;99.90
324;DHT22;149;51.094;17.002;2022-09-12T06:54:16;22.00;99.90
324;DHT22;149;51.094;17.002;2022-09-12T06:56:43;22.00;99.90
324;DHT22;149;51.094;17.002;2022-09-12T06:59:12;22.20;99.90
324;DHT22;149;51.094;17.002;2022-09-12T07:01:40;21.80;99.90
324;DHT22;149;51.094;17.002;2022-09-12T07:04:08;22.00;99.90
324;DHT22;149;51.094;17.002;2022-09-12T07:06:37;23.20;99.90
324;DHT22;149;51.094;17.002;2022-09-12T07:09:07;24.30;99.90
324;DHT22;149;51.094;17.002;2022-09-12T07:11:37;25.40;99.90
324;DHT22;149;51.094;17.002;2022-09-12T07:14:06;26.40;99.90
324;DHT22;149;51.094;17.002;2022-09-12T07:16:36;27.50;99.90
324;DHT22;149;51.094;17.002;2022-09-12T07:19:06;27.70;99.90
324;DHT22;149;51.094;17.002;2022-09-12T07:21:34;27.90;99.80
324;DHT22;149;51.094;17.002;2022-09-12T07:24:07;28.00;99.00
324;DHT22;149;51.094;17.002;2022-09-12T07:26:35;27.10;99.90
324;DHT22;149;51.094;17.002;2022-09-12T07:29:02;28.40;99.60
324;DHT22;149;51.094;17.002;2022-09-12T07:31:49;27.60;99.20
324;DHT22;149;51.094;17.002;2022-09-12T07:34:15;25.30;99.90
324;DHT22;149;51.094;17.002;2022-09-12T07:36:44;24.50;99.90
324;DHT22;149;51.094;17.002;2022-09-12T07:39:10;23.30;99.90
324;DHT22;149;51.094;17.002;2022-09-12T07:41:37;24.50;99.90
324;DHT22;149;51.094;17.002;2022-09-12T07:44:05;26.40;99.90
324;DHT22;149;51.094;17.002;2022-09-12T07:46:35;27.30;98.70
324;DHT22;149;51.094;17.002;2022-09-12T07:49:02;27.90;97.90
324;DHT22;149;51.094;17.002;2022-09-12T07:51:29;26.70;99.40
324;DHT22;149;51.094;17.002;2022-09-12T07:53:57;25.20;99.90
324;DHT22;149;51.094;17.002;2022-09-12T07:56:25;25.90;99.90
324;DHT22;149;51.094;17.002;2022-09-12T07:58:58;25.50;99.90
324;DHT22;149;51.094;17.002;2022-09-12T08:01:25;24.50;99.90
324;DHT22;149;51.094;17.002;2022-09-12T08:03:55;24.90;99.90
324;DHT22;149;51.094;17.002;2022-09-12T08:06:23;25.30;99.90
324;DHT22;149;51.094;17.002;2022-09-12T08:08:55;25.90;99.90
324;DHT22;149;51.094;17.002;2022-09-12T08:11:25;27.10;99.90
324;DHT22;149;51.094;17.002;2022-09-12T08:13:54;28.60;95.30
324;DHT22;149;51.094;17.002;2022-09-12T08:16:25;29.30;91.60
324;DHT22;149;51.094;17.002;2022-09-12T08:18:52;28.40;93.20
324;DHT22;149;51.094;17.002;2022-09-12T08:21:22;27.90;94.40
324;DHT22;149;51.094;17.002;2022-09-12T08:24:01;28.80;93.60
324;DHT22;149;51.094;17.002;2022-09-12T08:26:31;29.00;89.90
324;DHT22;149;51.094;17.002;2022-09-12T08:30:04;28.00;93.10
324;DHT22;149;51.094;17.002;2022-09-12T08:47:51;21.60;99.90
324;DHT22;149;51.094;17.002;2022-09-12T08:51:16;22.10;99.90
324;DHT22;149;51.094;17.002;2022-09-12T08:53:51;24.00;99.90
324;DHT22;149;51.094;17.002;2022-09-12T08:57:20;24.60;99.90
324;DHT22;149;51.094;17.002;2022-09-12T09:18:45;20.50;99.90
324;DHT22;149;51.094;17.002;2022-09-12T09:21:42;19.90;99.90
324;DHT22;149;51.094;17.002;2022-09-12T09:29:50;18.90;99.90
324;DHT22;149;51.094;17.002;2022-09-12T09:32:49;18.70;99.90
324;DHT22;149;51.094;17.002;2022-09-12T09:44:01;19.30;99.90
324;DHT22;149;51.094;17.002;2022-09-12T09:46:39;19.70;99.90
324;DHT22;149;51.094;17.002;2022-09-12T09:49:33;20.00;99.90
324;DHT22;149;51.094;17.002;2022-09-12T09:52:36;20.30;99.90
324;DHT22;149;51.094;17.002;2022-09-12T09:55:04;20.80;99.90
324;DHT22;149;51.094;17.002;2022-09-12T09:57:43;21.20;99.90
324;DHT22;149;51.094;17.002;2022-09-12T10:00:27;21.70;99.90
324;DHT22;149;51.094;17.002;2022-09-12T10:03:23;21.90;99.90
324;DHT22;149;51.094;17.002;2022-09-12T10:05:53;21.90;99.90
324;DHT22;149;51.094;17.002;2022-09-12T10:08:23;22.10;99.90
324;DHT22;149;51.094;17.002;2022-09-12T10:10:57;22.30;99.90
324;DHT22;149;51.094;17.002;2022-09-12T10:13:41;22.50;99.90
324;DHT22;149;51.094;17.002;2022-09-12T10:16:31;22.30;99.90
324;DHT22;149;51.094;17.002;2022-09-12T10:19:02;22.20;99.90
324;DHT22;149;51.094;17.002;2022-09-12T10:24:30;21.40;99.90
324;DHT22;149;51.094;17.002;2022-09-12T10:27:08;21.10;99.90
324;DHT22;149;51.094;17.002;2022-09-12T10:32:09;20.90;99.90
324;DHT22;149;51.094;17.002;2022-09-12T10:34:43;20.70;99.90
324;DHT22;149;51.094;17.002;2022-09-12T10:39:57;20.80;99.90
324;DHT22;149;51.094;17.002;2022-09-12T10:45:32;20.50;99.90
324;DHT22;149;51.094;17.002;2022-09-12T10:50:56;20.70;99.90
324;DHT22;149;51.094;17.002;2022-09-12T10:53:26;20.80;99.90
324;DHT22;149;51.094;17.002;2022-09-12T10:56:31;20.90;99.90
324;DHT22;149;51.094;17.002;2022-09-12T11:05:02;21.70;99.90
324;DHT22;149;51.094;17.002;2022-09-12T11:07:56;21.10;99.90
324;DHT22;149;51.094;17.002;2022-09-12T11:13:35;20.50;99.90
324;DHT22;149;51.094;17.002;2022-09-12T11:16:19;20.20;99.90
324;DHT22;149;51.094;17.002;2022-09-12T11:19:12;20.00;99.90
324;DHT22;149;51.094;17.002;2022-09-12T11:22:06;19.80;99.90
324;DHT22;149;51.094;17.002;2022-09-12T11:30:38;19.90;99.90
324;DHT22;149;51.094;17.002;2022-09-12T11:33:54;20.20;99.90
324;DHT22;149;51.094;17.002;2022-09-12T11:36:26;20.20;99.90
324;DHT22;149;51.094;17.002;2022-09-12T11:39:14;20.30;99.90
324;DHT22;149;51.094;17.002;2022-09-12T11:41:44;20.30;99.90
324;DHT22;149;51.094;17.002;2022-09-12T11:44:35;20.30;99.90
324;DHT22;149;51.094;17.002;2022-09-12T11:47:13;20.40;99.90
324;DHT22;149;51.094;17.002;2022-09-12T11:49:41;21.10;99.90
324;DHT22;149;51.094;17.002;2022-09-12T11:52:23;21.60;99.90
324;DHT22;149;51.094;17.002;2022-09-12T11:55:19;21.80;99.90
324;DHT22;149;51.094;17.002;2022-09-12T11:57:57;21.70;99.90
324;DHT22;149;51.094;17.002;2022-09-12T12:00:29;21.30;99.90
324;DHT22;149;51.094;17.002;2022-09-12T12:03:08;21.20;99.90
324;DHT22;149;51.094;17.002;2022-09-12T12:05:58;21.10;99.90
324;DHT22;149;51.094;17.002;2022-09-12T12:08:29;20.90;99.90
324;DHT22;149;51.094;17.002;2022-09-12T12:11:01;20.90;99.90
324;DHT22;149;51.094;17.002;2022-09-12T12:13:55;21.00;99.90
324;DHT22;149;51.094;17.002;2022-09-12T12:16:29;20.80;99.90
324;DHT22;149;51.094;17.002;2022-09-12T12:19:01;20.80;99.90
324;DHT22;149;51.094;17.002;2022-09-12T12:21:43;20.90;99.90
324;DHT22;149;51.094;17.002;2022-09-12T12:24:12;20.90;99.90
324;DHT22;149;51.094;17.002;2022-09-12T12:29:12;20.90;99.90
324;DHT22;149;51.094;17.002;2022-09-12T12:47:51;22.40;99.90
324;DHT22;149;51.094;17.002;2022-09-12T12:57:56;22.60;99.90
324;DHT22;149;51.094;17.002;2022-09-12T13:00:29;22.60;99.90
324;DHT22;149;51.094;17.002;2022-09-12T13:05:42;22.40;99.90
324;DHT22;149;51.094;17.002;2022-09-12T13:10:51;22.20;99.90
324;DHT22;149;51.094;17.002;2022-09-12T13:13:29;22.20;99.90
324;DHT22;149;51.094;17.002;2022-09-12T13:15:58;21.70;99.90
324;DHT22;149;51.094;17.002;2022-09-12T13:18:42;21.30;99.90
324;DHT22;149;51.094;17.002;2022-09-12T13:21:19;21.10;99.90
324;DHT22;149;51.094;17.002;2022-09-12T13:24:12;20.70;99.90
324;DHT22;149;51.094;17.002;2022-09-12T13:26:43;20.50;99.90
324;DHT22;149;51.094;17.002;2022-09-12T13:29:22;20.40;99.90
324;DHT22;149;51.094;17.002;2022-09-12T13:31:59;20.30;99.90
324;DHT22;149;51.094;17.002;2022-09-12T13:34:34;20.50;99.90
324;DHT22;149;51.094;17.002;2022-09-12T13:42:47;20.80;99.90
324;DHT22;149;51.094;17.002;2022-09-12T13:45:22;20.80;99.90
324;DHT22;149;51.094;17.002;2022-09-12T13:47:56;20.60;99.90
324;DHT22;149;51.094;17.002;2022-09-12T13:50:29;20.60;99.90
324;DHT22;149;51.094;17.002;2022-09-12T13:53:03;20.50;99.90
324;DHT22;149;51.094;17.002;2022-09-12T13:55:38;20.50;99.90
324;DHT22;149;51.094;17.002;2022-09-12T13:58:27;20.50;99.90
324;DHT22;149;51.094;17.002;2022-09-12T14:01:11;20.60;99.90
324;DHT22;149;51.094;17.002;2022-09-12T14:03:49;20.80;99.90
324;DHT22;149;51.094;17.002;2022-09-12T14:06:50;21.00;99.90
324;DHT22;149;51.094;17.002;2022-09-12T14:09:21;20.90;99.90
324;DHT22;149;51.094;17.002;2022-09-12T14:11:51;20.70;99.90
324;DHT22;149;51.094;17.002;2022-09-12T14:14:35;20.40;99.90
324;DHT22;149;51.094;17.002;2022-09-12T14:17:18;20.40;99.90
324;DHT22;149;51.094;17.002;2022-09-12T14:19:50;20.40;99.90
324;DHT22;149;51.094;17.002;2022-09-12T14:22:18;20.60;99.90
324;DHT22;149;51.094;17.002;2022-09-12T14:24:49;20.80;99.90
324;DHT22;149;51.094;17.002;2022-09-12T14:27:22;21.00;99.90
324;DHT22;149;51.094;17.002;2022-09-12T14:30:02;21.20;99.90
324;DHT22;149;51.094;17.002;2022-09-12T14:32:30;21.70;99.90
324;DHT22;149;51.094;17.002;2022-09-12T14:35:17;21.30;99.90
324;DHT22;149;51.094;17.002;2022-09-12T14:37:48;21.30;99.90
324;DHT22;149;51.094;17.002;2022-09-12T14:40:19;21.10;99.90
324;DHT22;149;51.094;17.002;2022-09-12T14:42:47;21.10;99.90
324;DHT22;149;51.094;17.002;2022-09-12T14:45:23;21.00;99.90
324;DHT22;149;51.094;17.002;2022-09-12T14:47:51;20.90;99.90
324;DHT22;149;51.094;17.002;2022-09-12T14:50:22;20.70;99.90
324;DHT22;149;51.094;17.002;2022-09-12T14:53:29;20.60;99.90
324;DHT22;149;51.094;17.002;2022-09-12T14:56:06;20.40;99.90
324;DHT22;149;51.094;17.002;2022-09-12T14:58:33;20.40;99.90
324;DHT22;149;51.094;17.002;2022-09-12T15:03:46;20.30;99.90
324;DHT22;149;51.094;17.002;2022-09-12T15:06:24;20.30;99.90
324;DHT22;149;51.094;17.002;2022-09-12T15:08:54;20.30;99.90
324;DHT22;149;51.094;17.002;2022-09-12T15:11:23;20.40;99.90
324;DHT22;149;51.094;17.002;2022-09-12T15:13:50;20.60;99.90
324;DHT22;149;51.094;17.002;2022-09-12T15:16:16;20.60;99.90
324;DHT22;149;51.094;17.002;2022-09-12T15:18:43;20.40;99.90
324;DHT22;149;51.094;17.002;2022-09-12T15:21:18;20.60;99.90
324;DHT22;149;51.094;17.002;2022-09-12T15:23:49;20.40;99.90
324;DHT22;149;51.094;17.002;2022-09-12T15:26:22;20.30;99.90
324;DHT22;149;51.094;17.002;2022-09-12T15:28:49;20.20;99.90
324;DHT22;149;51.094;17.002;2022-09-12T15:31:28;20.20;99.90
324;DHT22;149;51.094;17.002;2022-09-12T15:33:57;20.10;99.90
324;DHT22;149;51.094;17.002;2022-09-12T15:36:25;20.00;99.90
324;DHT22;149;51.094;17.002;2022-09-12T15:38:52;19.90;99.90
324;DHT22;149;51.094;17.002;2022-09-12T15:41:21;19.80;99.90
324;DHT22;149;51.094;17.002;2022-09-12T15:43:49;19.90;99.90
324;DHT22;149;51.094;17.002;2022-09-12T15:46:17;20.10;99.90
324;DHT22;149;51.094;17.002;2022-09-12T15:48:44;20.10;99.90
324;DHT22;149;51.094;17.002;2022-09-12T15:51:19;20.20;99.90
324;DHT22;149;51.094;17.002;2022-09-12T15:53:48;20.00;99.90
324;DHT22;149;51.094;17.002;2022-09-12T15:56:16;19.80;99.90
324;DHT22;149;51.094;17.002;2022-09-12T15:58:44;19.60;99.90
324;DHT22;149;51.094;17.002;2022-09-12T16:01:24;19.40;99.90
324;DHT22;149;51.094;17.002;2022-09-12T16:03:51;19.30;99.90
324;DHT22;149;51.094;17.002;2022-09-12T16:06:18;19.10;99.90
324;DHT22;149;51.094;17.002;2022-09-12T16:08:45;19.00;99.90
324;DHT22;149;51.094;17.002;2022-09-12T16:11:24;18.90;99.90
324;DHT22;149;51.094;17.002;2022-09-12T16:13:52;18.60;99.90
324;DHT22;149;51.094;17.002;2022-09-12T16:16:19;18.60;99.90
324;DHT22;149;51.094;17.002;2022-09-12T16:18:46;18.40;99.90
324;DHT22;149;51.094;17.002;2022-09-12T16:21:13;18.30;99.90
324;DHT22;149;51.094;17.002;2022-09-12T16:23:42;18.30;99.90
324;DHT22;149;51.094;17.002;2022-09-12T16:26:09;18.10;99.90
324;DHT22;149;51.094;17.002;2022-09-12T16:28:36;18.10;99.90
324;DHT22;149;51.094;17.002;2022-09-12T16:31:05;18.20;99.90
324;DHT22;149;51.094;17.002;2022-09-12T16:33:33;18.20;99.90
324;DHT22;149;51.094;17.002;2022-09-12T16:36:02;18.30;99.90
324;DHT22;149;51.094;17.002;2022-09-12T16:38:30;18.20;99.90
324;DHT22;149;51.094;17.002;2022-09-12T16:41:05;18.30;99.90
324;DHT22;149;51.094;17.002;2022-09-12T16:43:33;18.10;99.90
324;DHT22;149;51.094;17.002;2022-09-12T16:46:09;18.10;99.90
324;DHT22;149;51.094;17.002;2022-09-12T16:48:41;18.10;99.90
324;DHT22;149;51.094;17.002;2022-09-12T16:51:14;17.90;99.90
324;DHT22;149;51.094;17.002;2022-09-12T16:53:42;17.80;99.90
324;DHT22;149;51.094;17.002;2022-09-12T16:56:12;17.90;99.90
324;DHT22;149;51.094;17.002;2022-09-12T16:58:40;18.00;99.90
324;DHT22;149;51.094;17.002;2022-09-12T17:01:19;17.90;99.90
324;DHT22;149;51.094;17.002;2022-09-12T17:03:52;17.80;99.90
324;DHT22;149;51.094;17.002;2022-09-12T17:06:19;17.60;99.90
324;DHT22;149;51.094;17.002;2022-09-12T17:08:50;17.40;99.90
324;DHT22;149;51.094;17.002;2022-09-12T17:11:23;17.30;99.90
324;DHT22;149;51.094;17.002;2022-09-12T17:13:52;17.60;99.90
324;DHT22;149;51.094;17.002;2022-09-12T17:16:32;17.50;99.90
324;DHT22;149;51.094;17.002;2022-09-12T17:18:59;17.50;99.90
324;DHT22;149;51.094;17.002;2022-09-12T17:21:25;17.50;99.90
324;DHT22;149;51.094;17.002;2022-09-12T17:23:53;17.50;99.90
324;DHT22;149;51.094;17.002;2022-09-12T17:26:20;17.40;99.90
324;DHT22;149;51.094;17.002;2022-09-12T17:28:47;17.40;99.90
324;DHT22;149;51.094;17.002;2022-09-12T17:31:14;17.40;99.90
324;DHT22;149;51.094;17.002;2022-09-12T17:33:41;17.30;99.90
324;DHT22;149;51.094;17.002;2022-09-12T17:36:14;17.30;99.90
324;DHT22;149;51.094;17.002;2022-09-12T17:38:43;17.30;99.90
324;DHT22;149;51.094;17.002;2022-09-12T17:41:15;17.30;99.90
324;DHT22;149;51.094;17.002;2022-09-12T17:43:44;17.20;99.90
324;DHT22;149;51.094;17.002;2022-09-12T17:46:13;17.20;99.90
324;DHT22;149;51.094;17.002;2022-09-12T17:48:40;17.10;99.90
324;DHT22;149;51.094;17.002;2022-09-12T17:51:12;17.10;99.90
324;DHT22;149;51.094;17.002;2022-09-12T17:53:42;17.00;99.90
324;DHT22;149;51.094;17.002;2022-09-12T17:56:10;16.80;99.90
324;DHT22;149;51.094;17.002;2022-09-12T17:58:37;16.80;99.90
324;DHT22;149;51.094;17.002;2022-09-12T18:01:12;16.90;99.90
324;DHT22;149;51.094;17.002;2022-09-12T18:03:59;16.90;99.90
324;DHT22;149;51.094;17.002;2022-09-12T18:06:27;16.70;99.90
324;DHT22;149;51.094;17.002;2022-09-12T18:08:54;16.70;99.90
324;DHT22;149;51.094;17.002;2022-09-12T18:11:21;16.70;99.90
324;DHT22;149;51.094;17.002;2022-09-12T18:13:48;16.60;99.90
324;DHT22;149;51.094;17.002;2022-09-12T18:16:16;16.60;99.90
324;DHT22;149;51.094;17.002;2022-09-12T18:18:43;16.40;99.90
324;DHT22;149;51.094;17.002;2022-09-12T18:21:10;16.30;99.90
324;DHT22;149;51.094;17.002;2022-09-12T18:23:38;16.30;99.90
324;DHT22;149;51.094;17.002;2022-09-12T18:26:07;16.30;99.90
324;DHT22;149;51.094;17.002;2022-09-12T18:28:39;16.30;99.90
324;DHT22;149;51.094;17.002;2022-09-12T18:31:15;16.30;99.90
324;DHT22;149;51.094;17.002;2022-09-12T18:33:44;16.30;99.90
324;DHT22;149;51.094;17.002;2022-09-12T18:36:15;16.30;99.90
324;DHT22;149;51.094;17.002;2022-09-12T18:38:43;16.30;99.90
324;DHT22;149;51.094;17.002;2022-09-12T18:41:17;16.20;99.90
324;DHT22;149;51.094;17.002;2022-09-12T18:43:45;16.20;99.90
324;DHT22;149;51.094;17.002;2022-09-12T18:46:16;16.20;99.90
324;DHT22;149;51.094;17.002;2022-09-12T18:48:47;16.10;99.90
324;DHT22;149;51.094;17.002;2022-09-12T18:51:17;16.10;99.90
324;DHT22;149;51.094;17.002;2022-09-12T18:53:49;16.00;99.90
324;DHT22;149;51.094;17.002;2022-09-12T18:56:20;16.00;99.90
324;DHT22;149;51.094;17.002;2022-09-12T18:58:50;16.00;99.90
324;DHT22;149;51.094;17.002;2022-09-12T19:01:25;15.90;99.90
324;DHT22;149;51.094;17.002;2022-09-12T19:03:57;15.90;99.90
324;DHT22;149;51.094;17.002;2022-09-12T19:06:30;15.90;99.90
324;DHT22;149;51.094;17.002;2022-09-12T19:09:08;15.80;99.90
324;DHT22;149;51.094;17.002;2022-09-12T19:11:46;15.80;99.90
324;DHT22;149;51.094;17.002;2022-09-12T19:14:20;15.80;99.90
324;DHT22;149;51.094;17.002;2022-09-12T19:16:52;15.70;99.90